createdAt,value
2022-09-23T19:03:29.328Z,62988.50
2022-09-23T19:06:03.306Z,62988.50
2022-09-23T19:08:32.131Z,62988.50
2022-09-23T19:11:02.767Z,62988.50
2022-09-23T19:13:30.621Z,62988.50
2022-09-23T19:16:03.531Z,95349.81
2022-09-23T19:18:33.344Z,95362.22
2022-09-23T19:21:06.856Z,95360.47
2022-09-23T19:23:36.208Z,95352.34
2022-09-23T19:26:05.729Z,95351.38
2022-09-23T19:28:38.901Z,95351.50
2022-09-23T19:31:10.899Z,95344.53
2022-09-23T19:33:41.181Z,95349.97
2022-09-23T19:36:09.428Z,95355.41
2022-09-23T19:38:38.344Z,95348.91
2022-09-23T19:41:07.929Z,95356.00
2022-09-23T19:43:37.456Z,95354.97
2022-09-23T19:46:06.718Z,95346.84
2022-09-23T19:48:34.656Z,95355.78
2022-09-23T19:51:03.885Z,95351.78
2022-09-23T19:53:31.566Z,95345.34
2022-09-23T19:56:00.476Z,95344.03
2022-09-23T19:58:28.198Z,95341.13
2022-09-23T20:00:55.925Z,95343.09
2022-09-23T20:03:24.731Z,95346.13
2022-09-23T20:05:56.593Z,95340.44
2022-09-23T20:08:26.933Z,95340.47
2022-09-23T20:10:54.650Z,95342.41
2022-09-23T20:13:22.679Z,95337.56
2022-09-23T20:15:50.506Z,95336.50
2022-09-23T20:18:18.260Z,95340.81
2022-09-23T20:20:45.944Z,95342.72
2022-09-23T20:23:13.643Z,95341.69
2022-09-23T20:25:59.973Z,95336.28
2022-09-23T20:28:27.693Z,95340.91
2022-09-23T20:30:59.165Z,95337.44
2022-09-23T20:33:30.179Z,95334.41
2022-09-23T20:36:00.875Z,95340.94
2022-09-23T20:38:28.633Z,95334.75
2022-09-23T20:40:58.189Z,95326.69
2022-09-23T20:43:26.419Z,95340.75
2022-09-23T20:45:56.028Z,95336.41
2022-09-23T20:48:25.552Z,95326.97
2022-09-23T20:50:53.220Z,95324.81
2022-09-23T20:53:22.182Z,95327.22
2022-09-23T20:55:51.169Z,95327.25
2022-09-23T20:58:20.786Z,95328.31
2022-09-23T21:00:48.508Z,95323.22
2022-09-23T21:03:16.321Z,95321.06
2022-09-23T21:05:43.999Z,95316.69
2022-09-23T21:08:12.544Z,95316.94
2022-09-23T21:10:41.607Z,95319.59
2022-09-23T21:13:09.268Z,95309.88
2022-09-23T21:15:38.299Z,95309.59
2022-09-23T21:18:06.155Z,95312.31
2022-09-23T21:20:33.843Z,95310.94
2022-09-23T21:23:01.641Z,95316.41
2022-09-23T21:25:30.335Z,95307.75
2022-09-23T21:27:58.896Z,95302.91
2022-09-23T21:30:26.670Z,95305.88
2022-09-23T21:32:55.954Z,95306.41
2022-09-23T21:35:23.599Z,95309.66
2022-09-23T21:37:52.734Z,95306.69
2022-09-23T21:40:38.365Z,95297.53
2022-09-23T21:43:06.064Z,95307.50
2022-09-23T21:45:34.082Z,95308.84
2022-09-23T21:48:03.584Z,95309.72
2022-09-23T21:50:32.358Z,95306.22
2022-09-23T21:53:00.878Z,95299.72
2022-09-23T21:55:28.604Z,95307.06
2022-09-23T21:57:56.537Z,95298.13
2022-09-23T22:00:24.642Z,95300.03
2022-09-23T22:02:53.372Z,95308.94
2022-09-23T22:05:23.164Z,95313.81
2022-09-23T22:07:50.864Z,95316.28
2022-09-23T22:10:18.584Z,95303.59
2022-09-23T22:12:48.956Z,95299.81
2022-09-23T22:15:19.703Z,95306.56
2022-09-23T22:17:48.004Z,95299.75
2022-09-23T22:20:16.973Z,95290.84
2022-09-23T22:22:45.970Z,95291.66
2022-09-23T22:25:13.620Z,95283.28
2022-09-23T22:28:01.814Z,95283.28
2022-09-23T22:30:49.041Z,95281.63
2022-09-23T22:33:17.220Z,95290.00
2022-09-23T22:35:44.872Z,95285.94
2022-09-23T22:38:13.913Z,95289.44
2022-09-23T22:40:43.755Z,95277.56
2022-09-23T22:43:12.862Z,95280.81
2022-09-23T22:45:40.664Z,95284.31
2022-09-23T22:48:08.334Z,95286.19
2022-09-23T22:50:38.950Z,95275.94
2022-09-23T22:53:09.069Z,95281.06
2022-09-23T22:55:38.066Z,95282.41
2022-09-23T22:58:27.723Z,95281.06
2022-09-23T23:05:50.363Z,95269.78
2022-09-23T23:08:18.158Z,95265.19
2022-09-23T23:10:45.793Z,95254.38
2022-09-23T23:13:13.447Z,95256.00
2022-09-23T23:15:41.255Z,95252.72
2022-09-23T23:18:08.970Z,95249.75
2022-09-23T23:20:37.875Z,95249.50
2022-09-23T23:23:06.965Z,95251.88
2022-09-23T23:25:34.686Z,95258.06
2022-09-23T23:28:06.729Z,95260.75
2022-09-23T23:30:35.400Z,95254.84
2022-09-23T23:33:03.123Z,95250.78
2022-09-23T23:35:30.979Z,95257.00
2022-09-23T23:37:59.112Z,95249.44
2022-09-23T23:40:28.187Z,95240.81
2022-09-23T23:42:55.945Z,95240.53
2022-09-23T23:45:23.609Z,95238.91
2022-09-23T23:48:48.216Z,95241.34
2022-09-23T23:51:18.872Z,95237.81
2022-09-23T23:53:46.894Z,95241.34
2022-09-23T23:56:17.860Z,95240.03
2022-09-23T23:58:45.771Z,95241.13
